CRG - Jacksonville Exec At Craig

Pirep is a free, collaborative database of all public and private airports located within the United States. All pilots are welcome to contribute, edit, and improve any airport they have local knowledge about, no registration required.
Uploaded photos will be licensed under a CC BY-SA 4.0 license. Please only upload photos you have the rights to use.
Tags
Public
Golfing
METAR / TAF
Edit Tags
Food
Camping
Lodging
Car Rental
Bicycles
Swimming
Fishing
Hot Springs
Museum
Flying Clubs
Airpark
Upcoming Events
No upcoming events. Is anything happening here soon?
*
*
*

Where exactly on/near the airport is this event taking place?

Is there a webpage with more information for this event?

Who should be contacted for more information?

What is this event all about?

Repeat every
Description
Transient Parking
Fuel Location
Landing & Tie-down Fees
Crew Car Availability
Flying Clubs
WiFi Access
Airport Statistics
Location: Jacksonville, FL
Elevation: 40ft
Sectional: Jacksonville
Activation date: Jan 1943
Fuel: 100LL, A (prices)
Runway 14/32: 4,008ft
Runway 05/23: 4,004ft
Access: Open to the public
Current Weather — VFR
  • Weather data is strictly informational and not for flight planning purposes.
  • METAR
    2024-04-24 08:53:00 EDT
    Ceiling Wind Temperature Dewpoint Weather Visbility
    Sky clear Variable 66°F 53°F N/A 10SM
    Raw: KCRG 241253Z VRB04KT 10SM CLR 19/12 A3019 RMK AO2 SLP221 T01890122
  • TAF
    2024-04-24 08:00:00 EDT – 2024-04-24 14:00:00 EDT
    Ceiling Wind Weather Visbility
    Sky clear 210° @ 5kt N/A 6SM
    Clouds: @ ft
    Raw: KCRG 241130Z 2412/2512 21005KT P6SM SKC FM241800 15008KT P6SM FEW050 FEW250 FM250300 VRB02KT P6SM FEW060 FEW250
  • TAF
    2024-04-24 14:00:00 EDT – 2024-04-24 23:00:00 EDT
    Ceiling Wind Weather Visbility
    Sky clear 150° @ 8kt N/A 6SM
    Clouds: Few @ 5,000ft, Few @ 25,000ft
    Raw: KCRG 241130Z 2412/2512 21005KT P6SM SKC FM241800 15008KT P6SM FEW050 FEW250 FM250300 VRB02KT P6SM FEW060 FEW250
  • TAF
    2024-04-24 23:00:00 EDT – 2024-04-25 08:00:00 EDT
    Ceiling Wind Weather Visbility
    Sky clear Variable N/A 6SM
    Clouds: Few @ 6,000ft, Few @ 25,000ft
    Raw: KCRG 241130Z 2412/2512 21005KT P6SM SKC FM241800 15008KT P6SM FEW050 FEW250 FM250300 VRB02KT P6SM FEW060 FEW250
Click/tap to add an annotation marker to the map
Airport Webcams
No webcams added yet.
Direct links to live image URLs will be displayed inline on this page. URLs to separate webpages will be linked to.
URL:
Direct links to live image URLs will be displayed inline on this page. URLs to separate webpages will be linked to.
URL:
Remarks
  • Birds periodically on or near the arpt increasing in activity during inclement weather.
  • Banner towing on weekends & special events.
  • Vfr noise abatement procedures in effect, call amgr 904-641-7666. wx permitting, ry 05 preferred for apch, ry 32 preferred for dep.
  • Wildlife on & invof arpt.
  • Pavement accommodates design group ii acft (up to 79 ft wingspan) up to 60,000 lbs dual wheel loading. ppr for acft exceeding these ltds ctc at 904-741-2020.
Comments
Leave a comment What was your experience like at this airport?